Time;durP1;ratioP1;P1;durP2;ratioP2;P2;SDS_P1;SDS_P2;PMS_P1;PMS_P2;Temp;Humidity;BMP_temperature;BMP_pressure;BME280_temperature;BME280_humidity;BME280_pressure;Samples;Min_cycle;Max_cycle;Signal;HPM_P1;HPM_P2
2021/09/01 00:01:52;;;;;;;3.03;2.00;;;21.60;48.50;;;;;;4165396;28;20041;-43
2021/09/01 00:04:15;;;;;;;5.60;2.00;;;21.50;48.20;;;;;;4168071;28;20068;-43
2021/09/01 00:06:37;;;;;;;3.92;2.35;;;21.50;48.20;;;;;;4171122;28;20041;-42
2021/09/01 00:09:00;;;;;;;4.22;2.10;;;21.50;48.50;;;;;;4166168;28;20560;-46
2021/09/01 00:11:23;;;;;;;3.83;2.00;;;21.50;48.60;;;;;;4169884;28;20036;-43
2021/09/01 00:13:46;;;;;;;3.83;2.13;;;21.50;48.80;;;;;;4164308;28;20043;-47
2021/09/01 00:16:25;;;;;;;4.35;2.38;;;21.40;48.80;;;;;;4171418;28;20277;-42
2021/09/01 00:18:48;;;;;;;4.97;2.00;;;21.40;48.90;;;;;;4171287;28;20045;-49
2021/09/01 00:21:10;;;;;;;3.38;2.13;;;21.40;49.20;;;;;;4168926;28;20050;-44
2021/09/01 00:23:32;;;;;;;3.92;2.17;;;21.40;49.30;;;;;;4166367;28;20041;-45
2021/09/01 00:25:55;;;;;;;5.85;2.17;;;21.40;49.40;;;;;;4165643;28;20051;-43
2021/09/01 00:28:17;;;;;;;2.67;2.13;;;21.40;49.60;;;;;;4166472;28;20120;-45
2021/09/01 00:30:40;;;;;;;3.47;1.80;;;21.40;49.70;;;;;;4166962;28;20041;-43
2021/09/01 00:33:02;;;;;;;5.50;2.10;;;21.30;49.70;;;;;;4167210;28;20051;-42
2021/09/01 00:35:25;;;;;;;3.90;2.08;;;21.30;49.80;;;;;;4168240;28;20484;-43
2021/09/01 00:37:47;;;;;;;3.00;2.00;;;21.30;49.90;;;;;;4152651;28;20155;-43
2021/09/01 00:40:10;;;;;;;4.78;2.20;;;21.30;49.90;;;;;;4171841;28;20116;-42
2021/09/01 00:42:36;;;;;;;4.13;1.80;;;21.30;50.00;;;;;;4164163;28;20554;-42
2021/09/01 00:44:58;;;;;;;3.35;1.88;;;21.30;50.00;;;;;;4166863;28;20067;-42
2021/09/01 00:47:23;;;;;;;3.40;1.92;;;21.30;50.10;;;;;;4166138;28;20044;-45
2021/09/01 00:49:46;;;;;;;3.33;1.83;;;21.30;50.10;;;;;;4168409;28;20435;-44
2021/09/01 00:52:08;;;;;;;3.22;1.80;;;21.30;50.10;;;;;;4161962;28;20037;-41
2021/09/01 00:54:32;;;;;;;3.75;2.25;;;21.30;50.20;;;;;;4160256;28;21396;-44
2021/09/01 00:57:02;;;;;;;2.40;1.90;;;21.30;50.30;;;;;;4165825;28;20110;-43
2021/09/01 00:59:27;;;;;;;4.60;1.90;;;21.30;50.30;;;;;;4163585;28;20140;-44
2021/09/01 01:01:50;;;;;;;3.47;1.75;;;21.30;50.40;;;;;;4162002;28;20040;-45
2021/09/01 01:04:12;;;;;;;3.28;1.75;;;21.30;50.40;;;;;;4170576;28;20056;-45
2021/09/01 01:06:35;;;;;;;3.40;1.88;;;21.30;50.50;;;;;;4168739;28;20478;-45
2021/09/01 01:08:57;;;;;;;3.10;2.05;;;21.30;50.50;;;;;;4168180;28;20129;-43
2021/09/01 01:11:21;;;;;;;3.65;2.15;;;21.30;50.70;;;;;;4169999;28;20043;-50
2021/09/01 01:13:44;;;;;;;3.70;1.80;;;21.30;50.60;;;;;;4168549;28;20652;-47
2021/09/01 01:16:06;;;;;;;3.15;1.50;;;21.30;50.70;;;;;;4163705;28;20163;-46
2021/09/01 01:18:29;;;;;;;2.90;1.73;;;21.30;50.70;;;;;;4158264;28;20033;-49
2021/09/01 01:20:52;;;;;;;2.53;1.77;;;21.30;50.70;;;;;;4165794;28;20108;-42
2021/09/01 01:23:18;;;;;;;3.53;1.90;;;21.30;50.90;;;;;;4166061;28;20037;-46
2021/09/01 01:25:41;;;;;;;4.13;1.83;;;21.30;51.00;;;;;;4171309;28;20422;-46
2021/09/01 01:28:04;;;;;;;3.03;2.00;;;21.30;50.90;;;;;;4173617;28;20462;-43
2021/09/01 01:30:27;;;;;;;2.97;1.80;;;21.30;51.00;;;;;;4172811;28;20040;-41
2021/09/01 01:32:52;;;;;;;3.78;1.77;;;21.30;51.00;;;;;;4171897;28;20060;-46
2021/09/01 01:35:29;;;;;;;2.75;1.73;;;21.30;50.90;;;;;;4170859;28;20037;-47
2021/09/01 01:37:52;;;;;;;2.55;1.63;;;21.30;50.30;;;;;;4168633;28;20455;-44
2021/09/01 01:40:15;;;;;;;3.13;1.73;;;21.30;50.40;;;;;;4171800;28;20152;-41
2021/09/01 01:42:42;;;;;;;3.22;1.80;;;21.30;50.60;;;;;;4172992;28;20434;-46
2021/09/01 01:45:05;;;;;;;2.92;1.70;;;21.30;50.80;;;;;;4171135;28;20048;-44
2021/09/01 01:47:27;;;;;;;3.70;1.83;;;21.30;51.10;;;;;;4165589;28;20179;-43
2021/09/01 01:49:50;;;;;;;2.65;1.83;;;21.40;51.50;;;;;;4164843;28;20112;-45
2021/09/01 01:52:12;;;;;;;2.20;1.40;;;21.40;51.50;;;;;;4166315;28;20129;-44
2021/09/01 01:54:35;;;;;;;2.67;1.60;;;21.40;51.50;;;;;;4166894;28;20048;-43
2021/09/01 01:56:57;;;;;;;2.17;1.70;;;21.40;51.70;;;;;;4168496;28;20084;-43
2021/09/01 01:59:20;;;;;;;2.50;1.77;;;21.40;51.70;;;;;;4168611;28;20041;-45
2021/09/01 02:01:42;;;;;;;4.63;1.90;;;21.40;51.40;;;;;;4169324;28;20131;-44
2021/09/01 02:04:05;;;;;;;2.97;1.75;;;21.40;51.30;;;;;;4169747;28;20053;-42
2021/09/01 02:06:28;;;;;;;2.80;1.50;;;21.40;51.10;;;;;;4167726;28;20365;-43
2021/09/01 02:08:50;;;;;;;2.83;1.50;;;21.40;50.90;;;;;;4172573;28;20107;-43
2021/09/01 02:11:13;;;;;;;3.33;1.30;;;21.40;50.90;;;;;;4171896;28;20037;-44
2021/09/01 02:13:35;;;;;;;2.20;1.60;;;21.40;50.80;;;;;;4166161;28;20539;-43
2021/09/01 02:15:57;;;;;;;2.78;1.63;;;21.40;50.70;;;;;;4162551;28;20036;-45
2021/09/01 02:18:20;;;;;;;3.17;1.58;;;21.40;50.70;;;;;;4165852;28;20082;-43
2021/09/01 02:20:42;;;;;;;2.53;1.60;;;21.40;50.70;;;;;;4151016;28;20192;-48
2021/09/01 02:23:05;;;;;;;2.25;1.33;;;21.40;50.60;;;;;;4170185;28;20036;-44
2021/09/01 02:25:27;;;;;;;2.75;1.48;;;21.40;50.60;;;;;;4171320;28;20055;-43
2021/09/01 02:27:49;;;;;;;2.47;1.50;;;21.30;51.10;;;;;;4171950;28;20084;-45
2021/09/01 02:30:13;;;;;;;1.98;1.48;;;21.30;50.50;;;;;;4176688;28;20406;-42
2021/09/01 02:32:35;;;;;;;3.43;1.47;;;21.30;50.40;;;;;;4175655;28;20087;-44
2021/09/01 02:34:58;;;;;;;1.95;1.40;;;21.30;50.40;;;;;;4174146;28;20413;-42
2021/09/01 02:37:21;;;;;;;2.88;1.50;;;21.40;50.40;;;;;;4167703;28;20033;-42
2021/09/01 02:39:43;;;;;;;2.58;1.40;;;21.30;50.30;;;;;;4167900;28;20119;-45
2021/09/01 02:42:06;;;;;;;1.63;1.40;;;21.40;50.40;;;;;;4169976;28;20520;-46
2021/09/01 02:44:29;;;;;;;2.08;1.38;;;21.40;49.10;;;;;;4164496;28;20045;-42
2021/09/01 02:46:52;;;;;;;2.63;1.55;;;21.50;48.70;;;;;;4171856;28;20067;-44
2021/09/01 02:49:14;;;;;;;3.83;1.50;;;21.50;48.00;;;;;;4166241;28;20037;-45
2021/09/01 02:51:37;;;;;;;3.53;1.38;;;21.60;46.80;;;;;;4165013;28;20129;-43
2021/09/01 02:54:00;;;;;;;1.70;1.33;;;21.70;46.20;;;;;;4165710;28;20461;-46
2021/09/01 02:56:22;;;;;;;3.20;1.52;;;21.80;46.40;;;;;;4165454;28;20091;-45
2021/09/01 02:58:44;;;;;;;1.75;1.33;;;21.80;45.60;;;;;;4164347;28;20040;-43
2021/09/01 03:01:07;;;;;;;2.80;1.05;;;21.90;45.30;;;;;;4166013;28;20037;-40
2021/09/01 03:03:29;;;;;;;1.60;1.17;;;21.90;44.80;;;;;;4165968;28;20041;-39
2021/09/01 03:05:52;;;;;;;2.03;1.15;;;22.00;45.10;;;;;;4169486;28;20051;-47
2021/09/01 03:08:15;;;;;;;3.08;1.38;;;22.00;44.40;;;;;;4165702;28;20029;-45
2021/09/01 03:10:37;;;;;;;2.05;1.58;;;22.10;44.80;;;;;;4169006;28;20072;-42
2021/09/01 03:13:00;;;;;;;1.65;1.20;;;22.10;44.30;;;;;;4168231;28;20377;-41
2021/09/01 03:15:22;;;;;;;2.33;1.45;;;22.20;43.90;;;;;;4171074;28;20380;-41
2021/09/01 03:17:45;;;;;;;4.25;1.55;;;22.20;44.10;;;;;;4168377;28;20029;-45
2021/09/01 03:20:08;;;;;;;2.50;1.42;;;22.30;43.70;;;;;;4169193;28;20127;-41
2021/09/01 03:22:30;;;;;;;2.47;1.58;;;22.40;44.00;;;;;;4167571;28;20198;-45
2021/09/01 03:24:53;;;;;;;2.65;1.30;;;22.40;43.90;;;;;;4162846;28;20043;-47
2021/09/01 03:27:15;;;;;;;2.88;1.25;;;22.50;43.90;;;;;;4168367;28;20032;-43
2021/09/01 03:29:38;;;;;;;2.83;1.20;;;;;;;;;;4170285;28;20458;-43
2021/09/01 03:32:00;;;;;;;2.30;1.15;;;;;;;;;;4169868;28;20041;-48
2021/09/01 03:34:23;;;;;;;1.88;1.38;;;22.50;44.20;;;;;;4174294;28;20044;-41
2021/09/01 03:36:46;;;;;;;2.80;1.13;;;22.60;43.80;;;;;;4168657;28;20040;-48
2021/09/01 03:39:08;;;;;;;1.90;1.13;;;22.70;44.10;;;;;;4166030;28;20560;-46
2021/09/01 03:41:31;;;;;;;2.85;1.30;;;22.70;43.50;;;;;;4170655;28;20084;-43
2021/09/01 03:43:53;;;;;;;2.38;1.30;;;22.80;43.00;;;;;;4172148;28;20037;-41
2021/09/01 03:46:16;;;;;;;2.67;1.15;;;22.90;43.60;;;;;;4173438;28;20063;-44
2021/09/01 03:48:38;;;;;;;2.63;1.30;;;22.90;43.00;;;;;;4168617;28;20398;-44
2021/09/01 03:51:01;;;;;;;1.58;1.27;;;23.00;43.00;;;;;;4164322;28;20138;-44
2021/09/01 03:53:23;;;;;;;2.40;1.17;;;23.00;42.60;;;;;;4165507;28;20528;-43
2021/09/01 03:55:46;;;;;;;2.17;0.98;;;23.10;42.80;;;;;;4163982;28;20135;-42
2021/09/01 03:58:11;;;;;;;2.47;1.03;;;23.10;42.60;;;;;;4166885;28;20072;-42
2021/09/01 04:00:34;;;;;;;2.63;1.30;;;23.20;42.30;;;;;;4168697;28;20504;-42
2021/09/01 04:02:56;;;;;;;1.60;1.20;;;23.20;42.50;;;;;;4169019;28;20100;-44
2021/09/01 04:05:19;;;;;;;1.85;1.05;;;23.30;42.40;;;;;;4176987;28;20139;-46
2021/09/01 04:07:41;;;;;;;1.80;1.02;;;23.30;42.30;;;;;;4167027;28;20091;-40
2021/09/01 04:10:04;;;;;;;3.13;1.20;;;23.40;42.20;;;;;;4171085;28;20073;-42
2021/09/01 04:12:26;;;;;;;2.75;1.60;;;23.50;42.30;;;;;;4167903;28;20044;-45
2021/09/01 04:14:48;;;;;;;1.77;1.17;;;23.50;42.30;;;;;;4175531;28;20492;-47
2021/09/01 04:17:11;;;;;;;2.97;1.25;;;23.60;42.10;;;;;;4165892;28;20036;-47
2021/09/01 04:19:34;;;;;;;3.15;1.27;;;23.70;40.70;;;;;;4178484;28;20070;-44
2021/09/01 04:21:57;;;;;;;4.72;1.20;;;23.70;40.80;;;;;;4168508;28;20037;-44
2021/09/01 04:24:19;;;;;;;2.47;1.30;;;23.70;40.80;;;;;;4173928;28;20163;-46
2021/09/01 04:26:41;;;;;;;1.90;1.00;;;23.80;40.30;;;;;;4169839;28;20037;-43
2021/09/01 04:29:04;;;;;;;2.03;1.15;;;23.80;39.70;;;;;;4171497;28;20397;-48
2021/09/01 04:31:26;;;;;;;2.53;1.08;;;23.80;39.70;;;;;;4174486;28;20052;-47
2021/09/01 04:33:49;;;;;;;2.33;1.38;;;23.90;40.00;;;;;;4171922;28;20067;-43
2021/09/01 04:36:11;;;;;;;2.58;1.20;;;23.90;40.50;;;;;;4167244;28;20033;-43
2021/09/01 04:38:34;;;;;;;2.05;1.60;;;23.80;41.00;;;;;;4167475;28;20060;-44
2021/09/01 04:40:56;;;;;;;2.63;1.10;;;23.80;41.50;;;;;;4172950;28;20339;-48
2021/09/01 04:43:18;;;;;;;2.78;1.10;;;23.80;42.00;;;;;;4170066;28;20084;-43
2021/09/01 04:45:41;;;;;;;3.28;1.02;;;23.80;42.30;;;;;;4171057;28;20045;-46
2021/09/01 04:48:03;;;;;;;2.33;1.17;;;23.80;43.00;;;;;;4173580;28;20067;-42
2021/09/01 04:50:26;;;;;;;4.03;1.45;;;23.80;42.50;;;;;;4166934;28;20033;-40
2021/09/01 04:52:49;;;;;;;1.92;1.23;;;23.80;42.80;;;;;;4168457;28;20045;-45
2021/09/01 04:55:13;;;;;;;3.63;1.33;;;23.80;43.00;;;;;;4172085;28;20040;-45
2021/09/01 04:57:35;;;;;;;3.67;1.50;;;23.80;43.00;;;;;;4169798;28;20114;-45
2021/09/01 04:59:58;;;;;;;2.72;1.40;;;23.80;42.90;;;;;;4170417;28;20780;-47
2021/09/01 05:02:20;;;;;;;2.13;1.42;;;23.80;43.10;;;;;;4173639;28;20040;-42
2021/09/01 05:04:43;;;;;;;3.38;1.40;;;23.80;43.00;;;;;;4175935;28;20048;-43
2021/09/01 05:07:05;;;;;;;3.10;1.30;;;23.80;43.10;;;;;;4164843;28;20041;-42
2021/09/01 05:09:29;;;;;;;2.78;1.13;;;23.90;43.20;;;;;;4170672;28;20499;-46
2021/09/01 05:11:51;;;;;;;2.35;1.40;;;23.90;43.30;;;;;;4170233;28;20041;-43
2021/09/01 05:14:14;;;;;;;2.78;1.30;;;24.00;43.70;;;;;;4171478;28;20047;-46
2021/09/01 05:16:36;;;;;;;2.53;1.10;;;24.00;43.80;;;;;;4170215;28;20033;-45
2021/09/01 05:18:59;;;;;;;1.90;1.20;;;24.00;44.10;;;;;;4176196;28;20595;-44
2021/09/01 05:21:25;;;;;;;2.08;1.02;;;24.10;44.20;;;;;;4168050;28;20292;-45
2021/09/01 05:23:53;;;;;;;2.70;1.17;;;24.10;44.30;;;;;;4171364;28;20040;-41
2021/09/01 05:26:18;;;;;;;2.78;1.00;;;24.10;44.40;;;;;;4169294;28;20160;-42
2021/09/01 05:28:40;;;;;;;2.05;1.13;;;24.20;44.50;;;;;;4172701;28;20083;-42
2021/09/01 05:31:06;;;;;;;2.58;1.30;;;24.20;44.50;;;;;;4169175;28;20049;-47
2021/09/01 05:33:36;;;;;;;3.95;1.25;;;24.20;44.30;;;;;;4169252;28;20231;-43
2021/09/01 05:35:59;;;;;;;1.77;1.10;;;24.20;44.40;;;;;;4171179;28;20123;-44
2021/09/01 05:38:21;;;;;;;1.80;1.15;;;24.30;44.60;;;;;;4169353;28;20044;-41
2021/09/01 05:40:46;;;;;;;2.03;1.20;;;24.30;45.10;;;;;;4169649;28;20260;-46
2021/09/01 05:43:09;;;;;;;3.25;1.27;;;24.40;45.00;;;;;;4173023;28;20056;-41
2021/09/01 05:45:32;;;;;;;3.23;1.23;;;24.40;45.00;;;;;;4170182;28;20516;-43
2021/09/01 05:47:58;;;;;;;3.67;1.02;;;24.40;45.00;;;;;;4170175;28;20288;-41
2021/09/01 05:50:20;;;;;;;1.58;0.98;;;24.50;45.20;;;;;;4167813;28;20123;-41
2021/09/01 05:52:43;;;;;;;1.02;0.90;;;24.50;45.20;;;;;;4167214;28;20927;-42
2021/09/01 05:55:10;;;;;;;1.38;1.02;;;24.50;45.50;;;;;;4170076;28;20076;-44
2021/09/01 05:57:38;;;;;;;3.42;1.27;;;24.50;45.50;;;;;;4167111;28;20410;-44
2021/09/01 06:00:11;;;;;;;2.00;1.13;;;24.60;45.60;;;;;;4168633;28;20051;-42
2021/09/01 06:02:40;;;;;;;2.90;1.20;;;24.60;45.50;;;;;;4168941;28;20107;-49
2021/09/01 06:05:05;;;;;;;4.18;1.05;;;24.60;45.60;;;;;;4170294;28;20044;-43
2021/09/01 06:07:29;;;;;;;2.75;1.10;;;24.60;45.80;;;;;;4166963;28;20494;-44
2021/09/01 06:09:57;;;;;;;1.08;0.90;;;24.70;46.00;;;;;;4169472;28;20460;-45
2021/09/01 06:12:21;;;;;;;1.92;1.00;;;24.70;46.10;;;;;;4171953;28;20443;-45
2021/09/01 06:14:43;;;;;;;1.27;0.88;;;24.70;45.90;;;;;;4168162;28;20041;-42
2021/09/01 06:17:06;;;;;;;2.22;1.30;;;24.80;45.80;;;;;;4169485;28;20052;-42
2021/09/01 06:19:28;;;;;;;1.63;1.20;;;24.80;46.40;;;;;;4165961;28;20065;-45
2021/09/01 06:21:50;;;;;;;4.10;1.40;;;24.80;45.80;;;;;;4152432;28;20471;-44
2021/09/01 06:24:13;;;;;;;3.75;1.30;;;24.90;45.80;;;;;;4174723;28;20410;-41
2021/09/01 06:26:35;;;;;;;5.00;1.20;;;24.90;45.80;;;;;;4173422;28;20049;-45
2021/09/01 06:28:58;;;;;;;2.65;1.17;;;24.90;45.80;;;;;;4166785;28;20039;-44
2021/09/01 06:31:20;;;;;;;4.00;1.60;;;25.00;45.80;;;;;;4169021;28;20044;-43
2021/09/01 06:33:42;;;;;;;4.05;1.50;;;25.00;46.20;;;;;;4169714;28;20358;-42
2021/09/01 06:36:05;;;;;;;4.10;1.80;;;25.00;45.90;;;;;;4169276;28;20096;-40
2021/09/01 06:38:28;;;;;;;8.65;1.98;;;25.00;45.90;;;;;;4167635;28;20426;-41
2021/09/01 06:40:50;;;;;;;3.75;1.50;;;25.00;46.10;;;;;;4171865;28;20473;-45
2021/09/01 06:43:13;;;;;;;3.90;1.90;;;25.00;46.10;;;;;;4164745;28;20441;-45
2021/09/01 06:45:37;;;;;;;4.18;1.60;;;25.00;46.10;;;;;;4165565;28;20081;-40
2021/09/01 06:47:59;;;;;;;3.10;1.48;;;25.00;46.00;;;;;;4168764;28;20112;-44
2021/09/01 06:50:24;;;;;;;4.22;1.80;;;25.10;46.10;;;;;;4164270;28;20490;-41
2021/09/01 06:52:47;;;;;;;3.47;1.75;;;25.10;46.00;;;;;;4167092;28;20072;-46
2021/09/01 06:55:11;;;;;;;4.05;1.85;;;25.10;46.00;;;;;;4169902;28;20048;-46
2021/09/01 06:57:35;;;;;;;4.20;1.80;;;25.10;46.00;;;;;;4167697;28;20033;-44
2021/09/01 06:59:57;;;;;;;;;;;25.10;46.00;;;;;;4169308;28;20135;-44
2021/09/01 07:02:19;;;;;;;4.10;1.67;;;25.10;46.00;;;;;;4170660;28;20361;-42
2021/09/01 07:04:42;;;;;;;5.00;1.70;;;25.10;46.10;;;;;;4170150;28;20044;-43
2021/09/01 07:07:04;;;;;;;5.40;2.42;;;25.10;46.10;;;;;;4166157;28;20394;-50
2021/09/01 07:09:27;;;;;;;6.82;2.92;;;25.10;45.30;;;;;;4167693;28;20046;-48
2021/09/01 07:11:49;;;;;;;4.50;2.10;;;25.00;45.20;;;;;;4167416;28;20045;-44
2021/09/01 07:14:11;;;;;;;10.05;2.80;;;24.80;45.20;;;;;;4168068;28;20075;-48
2021/09/01 07:16:35;;;;;;;6.53;2.40;;;24.80;45.30;;;;;;4166109;28;20041;-44
2021/09/01 07:18:57;;;;;;;8.20;3.20;;;24.80;45.40;;;;;;4170586;28;20036;-47
2021/09/01 07:21:20;;;;;;;7.75;2.88;;;24.70;45.50;;;;;;4175905;28;20036;-46
2021/09/01 07:23:42;;;;;;;9.60;3.45;;;24.70;45.60;;;;;;4168294;28;20032;-43
2021/09/01 07:26:05;;;;;;;8.55;4.20;;;24.60;45.70;;;;;;4179544;28;20049;-48
2021/09/01 07:28:28;;;;;;;8.50;3.55;;;24.60;45.80;;;;;;4167886;28;20803;-42
2021/09/01 07:30:50;;;;;;;12.05;3.33;;;24.60;45.80;;;;;;4169596;28;20033;-41
2021/09/01 07:33:13;;;;;;;6.35;3.55;;;24.50;45.80;;;;;;4169489;28;20132;-41
2021/09/01 07:35:35;;;;;;;7.72;3.60;;;24.50;45.90;;;;;;4147042;28;21222;-43
2021/09/01 07:37:58;;;;;;;7.30;3.97;;;24.40;45.80;;;;;;4170164;28;20032;-45
2021/09/01 07:40:23;;;;;;;7.85;4.20;;;24.40;45.90;;;;;;4162329;28;20512;-42
2021/09/01 07:42:46;;;;;;;8.02;4.00;;;24.40;45.90;;;;;;4163675;28;20525;-43
2021/09/01 07:45:09;;;;;;;6.87;3.83;;;24.40;46.00;;;;;;4170733;28;20056;-43
2021/09/01 07:47:36;;;;;;;21.77;4.22;;;24.40;46.10;;;;;;4167829;28;20048;-41
2021/09/01 07:49:58;;;;;;;7.97;4.18;;;24.30;46.10;;;;;;4165834;28;20040;-42
2021/09/01 07:52:21;;;;;;;6.85;3.97;;;24.30;46.20;;;;;;4150343;28;20025;-41
2021/09/01 07:54:43;;;;;;;7.35;4.22;;;24.20;46.20;;;;;;4171622;28;20040;-41
2021/09/01 07:57:05;;;;;;;7.07;3.80;;;24.20;46.40;;;;;;4168839;28;20080;-47
2021/09/01 07:59:28;;;;;;;9.43;4.20;;;24.20;46.40;;;;;;4151768;28;20037;-41
2021/09/01 08:01:50;;;;;;;6.30;3.83;;;24.10;46.40;;;;;;4176338;28;20039;-44
2021/09/01 08:04:13;;;;;;;7.30;3.80;;;24.10;46.50;;;;;;4164467;28;20465;-48
2021/09/01 08:06:35;;;;;;;10.85;4.20;;;24.10;46.60;;;;;;4164844;28;20033;-47
2021/09/01 08:08:58;;;;;;;5.10;3.50;;;24.00;46.80;;;;;;4166838;28;20037;-43
2021/09/01 08:11:20;;;;;;;7.25;4.35;;;24.00;46.80;;;;;;4163765;28;20324;-49
2021/09/01 08:13:42;;;;;;;6.38;4.20;;;24.00;46.90;;;;;;4171276;28;20049;-44
2021/09/01 08:16:05;;;;;;;7.30;3.60;;;23.90;47.00;;;;;;4170750;28;20040;-44
2021/09/01 08:18:27;;;;;;;8.15;4.20;;;23.90;47.20;;;;;;4171960;28;20040;-44
2021/09/01 08:20:50;;;;;;;7.53;3.70;;;23.80;47.20;;;;;;4173064;28;20045;-49
2021/09/01 08:23:12;;;;;;;6.13;3.50;;;23.80;47.20;;;;;;4170223;28;20525;-47
2021/09/01 08:25:35;;;;;;;5.70;3.70;;;23.80;47.20;;;;;;4169402;28;20140;-39
2021/09/01 08:27:57;;;;;;;5.90;3.45;;;23.80;47.20;;;;;;4173929;28;20044;-43
2021/09/01 08:30:20;;;;;;;6.47;3.78;;;23.70;47.30;;;;;;4172526;28;20663;-41
2021/09/01 08:32:42;;;;;;;6.85;3.42;;;23.70;47.40;;;;;;4171471;28;20067;-42
2021/09/01 08:35:05;;;;;;;4.57;3.10;;;23.60;47.40;;;;;;4175727;28;20107;-41
2021/09/01 08:37:28;;;;;;;5.15;3.35;;;23.60;47.50;;;;;;4171702;28;20363;-42
2021/09/01 08:39:50;;;;;;;5.68;3.17;;;23.60;47.60;;;;;;4180891;28;20059;-46
2021/09/01 08:42:13;;;;;;;4.82;2.97;;;23.60;48.40;;;;;;4177315;28;20387;-44
2021/09/01 08:44:35;;;;;;;5.85;3.30;;;23.60;47.80;;;;;;4176756;28;20115;-45
2021/09/01 08:47:00;;;;;;;4.30;3.00;;;23.50;48.40;;;;;;4167821;28;20098;-42
2021/09/01 08:49:23;;;;;;;4.97;3.00;;;23.50;47.90;;;;;;4174320;28;20446;-42
2021/09/01 08:51:49;;;;;;;5.65;3.40;;;23.50;48.00;;;;;;4166166;28;20040;-42
2021/09/01 08:54:14;;;;;;;5.88;3.00;;;23.50;48.10;;;;;;4179622;28;20056;-43
2021/09/01 08:56:36;;;;;;;4.95;3.08;;;23.40;48.10;;;;;;4173866;28;20037;-45
2021/09/01 08:58:58;;;;;;;6.15;2.80;;;23.40;48.30;;;;;;4170712;28;20037;-42
2021/09/01 09:01:45;;;;;;;5.03;3.28;;;23.40;48.40;;;;;;4170958;28;20670;-40
2021/09/01 09:04:17;;;;;;;5.57;3.33;;;23.30;48.50;;;;;;4176494;28;20075;-41
2021/09/01 09:06:51;;;;;;;3.85;2.72;;;23.30;48.60;;;;;;4167215;28;20047;-40
2021/09/01 09:09:15;;;;;;;5.18;3.10;;;23.30;48.60;;;;;;4171297;28;20047;-43
2021/09/01 09:11:37;;;;;;;4.13;2.47;;;23.30;48.80;;;;;;4164176;28;20041;-41
2021/09/01 09:14:19;;;;;;;5.15;3.10;;;23.20;48.70;;;;;;4171325;28;20559;-43
2021/09/01 09:16:42;;;;;;;4.78;3.28;;;23.20;48.70;;;;;;4169257;28;20577;-41
2021/09/01 09:19:05;;;;;;;5.28;2.95;;;23.20;48.80;;;;;;4174495;28;20092;-42
2021/09/01 09:21:35;;;;;;;5.57;3.00;;;23.20;49.20;;;;;;4166459;28;20123;-41
2021/09/01 09:23:57;;;;;;;4.75;2.92;;;23.20;49.50;;;;;;4172504;28;20069;-41
2021/09/01 09:26:32;;;;;;;4.70;2.80;;;23.20;49.70;;;;;;4167469;28;20398;-41
2021/09/01 09:29:11;;;;;;;6.13;3.33;;;23.20;49.90;;;;;;4171761;28;20032;-41
2021/09/01 09:31:34;;;;;;;5.10;3.08;;;23.20;49.90;;;;;;4170882;28;20115;-45
2021/09/01 09:34:11;;;;;;;4.88;3.38;;;23.20;50.30;;;;;;4173063;28;20462;-42
2021/09/01 09:36:34;;;;;;;3.92;2.92;;;23.20;50.40;;;;;;4174071;28;20124;-42
2021/09/01 09:38:56;;;;;;;4.70;3.05;;;23.20;50.40;;;;;;4170157;28;20087;-41
2021/09/01 09:41:28;;;;;;;5.72;3.10;;;23.20;50.50;;;;;;4175469;28;20489;-43
2021/09/01 09:43:53;;;;;;;7.10;2.85;;;23.20;50.80;;;;;;4176802;28;20045;-48
2021/09/01 09:46:16;;;;;;;4.90;3.10;;;23.20;51.10;;;;;;4168848;28;20144;-44
2021/09/01 09:48:42;;;;;;;5.45;2.80;;;23.20;51.20;;;;;;4173104;28;20060;-42
2021/09/01 09:51:07;;;;;;;6.85;3.50;;;23.20;51.20;;;;;;4170663;28;20036;-43
2021/09/01 09:53:30;;;;;;;5.85;2.88;;;23.20;51.40;;;;;;4169936;28;20045;-47
2021/09/01 09:56:10;;;;;;;5.97;2.80;;;23.10;51.30;;;;;;4170171;28;20681;-43
2021/09/01 09:58:38;;;;;;;6.70;2.75;;;23.10;51.10;;;;;;4169093;28;20269;-45
2021/09/01 10:01:04;;;;;;;8.98;3.40;;;23.10;51.50;;;;;;4174868;28;20032;-44
2021/09/01 10:03:27;;;;;;;6.53;3.08;;;23.10;51.80;;;;;;4172818;28;20049;-45
2021/09/01 10:05:49;;;;;;;5.00;3.00;;;23.10;52.00;;;;;;4173609;28;20052;-48
2021/09/01 10:08:12;;;;;;;8.85;2.80;;;23.10;52.10;;;;;;4171252;28;20518;-46
2021/09/01 10:10:34;;;;;;;7.53;2.63;;;23.10;52.10;;;;;;4170659;28;20041;-43
2021/09/01 10:12:57;;;;;;;8.10;2.90;;;23.10;52.00;;;;;;4169639;28;20481;-43
2021/09/01 10:15:26;;;;;;;5.03;2.85;;;23.10;52.10;;;;;;4169371;28;20033;-49
2021/09/01 10:17:52;;;;;;;6.22;2.67;;;23.10;52.10;;;;;;4169600;28;20040;-45
2021/09/01 10:20:21;;;;;;;6.55;3.17;;;23.10;52.20;;;;;;4171388;28;20119;-46
2021/09/01 10:22:44;;;;;;;5.28;2.88;;;23.00;52.20;;;;;;4166621;28;20903;-45
2021/09/01 10:25:07;;;;;;;8.85;3.70;;;23.00;51.80;;;;;;4167998;28;20040;-44
2021/09/01 10:27:29;;;;;;;7.40;3.00;;;23.00;52.00;;;;;;4173895;28;20413;-45
2021/09/01 10:29:55;;;;;;;6.20;3.08;;;23.00;52.30;;;;;;4165438;28;20032;-43
2021/09/01 10:32:31;;;;;;;9.73;3.90;;;23.00;52.30;;;;;;4168338;28;20453;-45
2021/09/01 10:35:20;;;;;;;7.45;3.33;;;23.00;52.20;;;;;;4170307;28;20044;-43
2021/09/01 10:37:44;;;;;;;7.85;3.10;;;23.00;52.20;;;;;;4169415;28;20041;-43
2021/09/01 10:40:10;;;;;;;9.23;3.22;;;23.00;52.60;;;;;;4171924;28;20036;-47
2021/09/01 10:42:38;;;;;;;5.65;3.00;;;23.00;52.70;;;;;;4165450;28;20566;-45
2021/09/01 10:45:00;;;;;;;7.70;3.00;;;23.00;52.90;;;;;;4169925;28;20052;-42
2021/09/01 10:47:23;;;;;;;9.60;3.53;;;22.90;52.90;;;;;;4161747;28;20350;-41
2021/09/01 10:50:00;;;;;;;9.80;3.28;;;23.00;53.60;;;;;;4165293;28;20044;-44
2021/09/01 10:52:23;;;;;;;8.18;3.08;;;22.90;53.10;;;;;;4166927;28;20041;-43
2021/09/01 10:54:48;;;;;;;5.63;2.88;;;22.90;53.20;;;;;;4166187;28;20113;-43
2021/09/01 10:57:28;;;;;;;6.95;2.90;;;22.90;53.20;;;;;;4167747;28;20100;-44
2021/09/01 10:59:50;;;;;;;6.72;2.88;;;22.90;53.50;;;;;;4175172;28;20036;-49
2021/09/01 11:02:15;;;;;;;7.25;2.95;;;22.90;53.20;;;;;;4165872;28;20045;-48
2021/09/01 11:04:51;;;;;;;6.18;2.80;;;22.90;53.40;;;;;;4165154;28;20117;-48
2021/09/01 11:07:03;;;;;;;6.72;2.72;;;22.90;53.50;;;;;;4167698;28;20455;-48
2021/09/01 11:09:12;;;;;;;5.25;2.70;;;23.00;53.60;;;;;;4159550;28;20187;-43
2021/09/01 11:11:14;;;;;;;5.65;2.90;;;23.00;53.60;;;;;;4163868;28;20057;-50
2021/09/01 11:13:16;;;;;;;6.88;3.40;;;23.00;53.60;;;;;;4168501;28;20136;-46
2021/09/01 11:15:45;;;;;;;5.03;3.08;;;23.00;53.60;;;;;;4168984;28;20062;-46
2021/09/01 11:18:08;;;;;;;9.43;3.22;;;23.00;53.60;;;;;;4164159;28;20076;-47
2021/09/01 11:20:31;;;;;;;5.60;2.67;;;23.00;53.60;;;;;;4167179;28;20040;-42
2021/09/01 11:22:54;;;;;;;6.10;2.85;;;23.00;53.70;;;;;;4163561;28;20040;-44
2021/09/01 11:25:17;;;;;;;4.43;2.90;;;22.90;53.70;;;;;;4165245;28;20048;-48
2021/09/01 11:27:25;;;;;;;11.65;2.92;;;22.90;53.80;;;;;;4162065;28;20480;-43
2021/09/01 11:29:34;;;;;;;5.60;2.75;;;22.90;53.80;;;;;;4160595;28;20037;-45
2021/09/01 11:31:43;;;;;;;6.10;2.92;;;22.90;53.90;;;;;;4166193;28;20501;-46
2021/09/01 11:33:45;;;;;;;6.28;2.95;;;23.00;53.90;;;;;;4161172;28;20044;-48
2021/09/01 11:35:48;;;;;;;8.88;3.20;;;23.00;53.80;;;;;;4145324;28;20797;-48
2021/09/01 11:38:03;;;;;;;8.38;3.00;;;23.00;54.00;;;;;;4165552;28;20468;-43
2021/09/01 11:40:09;;;;;;;5.22;2.85;;;22.90;54.00;;;;;;4143871;28;20053;-44
2021/09/01 11:42:12;;;;;;;5.72;2.55;;;23.00;54.00;;;;;;4165008;28;20394;-44
2021/09/01 11:44:15;;;;;;;5.65;2.63;;;23.00;54.00;;;;;;4172421;28;20067;-50
2021/09/01 11:46:20;;;;;;;12.55;3.40;;;23.00;54.10;;;;;;4160106;28;20055;-46
2021/09/01 11:48:22;;;;;;;5.55;2.60;;;23.00;54.00;;;;;;4164789;28;20060;-49
2021/09/01 11:50:24;;;;;;;4.55;2.97;;;22.90;54.60;;;;;;4163739;28;20053;-45
2021/09/01 11:52:35;;;;;;;11.55;3.00;;;22.90;54.20;;;;;;4161050;28;20045;-45
2021/09/01 11:54:41;;;;;;;6.80;2.83;;;22.90;54.30;;;;;;4167748;28;20163;-42
2021/09/01 11:56:43;;;;;;;5.60;2.75;;;22.90;54.40;;;;;;4144789;28;20048;-42
2021/09/01 11:58:57;;;;;;;5.78;3.10;;;22.90;54.40;;;;;;4167585;28;20040;-45
2021/09/01 12:01:00;;;;;;;;;;;22.90;54.50;;;;;;4163775;28;20037;-46
2021/09/01 12:03:02;;;;;;;8.43;2.83;;;22.90;54.40;;;;;;4162802;28;20274;-45
2021/09/01 12:05:05;;;;;;;5.93;2.72;;;22.90;54.60;;;;;;4164809;28;20075;-44
2021/09/01 12:07:07;;;;;;;4.63;2.63;;;22.90;54.50;;;;;;4165577;28;20053;-44
2021/09/01 12:09:13;;;;;;;4.75;2.97;;;22.90;54.50;;;;;;4146119;28;20660;-44
2021/09/01 12:11:16;;;;;;;5.07;2.78;;;22.90;54.50;;;;;;4166565;28;20411;-49
2021/09/01 12:13:18;;;;;;;10.25;3.15;;;22.90;54.60;;;;;;4162943;28;20535;-45
2021/09/01 12:15:21;;;;;;;4.38;2.85;;;22.90;55.00;;;;;;4162516;28;20103;-44
2021/09/01 12:17:24;;;;;;;4.15;2.55;;;22.90;54.60;;;;;;4144019;28;20041;-44
2021/09/01 12:19:26;;;;;;;4.22;2.88;;;22.90;54.60;;;;;;4145297;28;20173;-44
2021/09/01 12:21:44;;;;;;;4.80;2.90;;;22.90;54.40;;;;;;4165116;28;20459;-45